createdAt,value
2022-10-21T00:03:06.494Z,99863.59
2022-10-21T00:08:07.745Z,99823.44
2022-10-21T00:13:09.298Z,99800.16
2022-10-21T00:18:10.568Z,99783.41
2022-10-21T00:23:11.912Z,99782.22
2022-10-21T00:28:13.280Z,99794.63
2022-10-21T00:33:14.658Z,99808.97
2022-10-21T00:38:16.028Z,99796.88
2022-10-21T00:43:17.648Z,99805.25
2022-10-21T00:48:34.870Z,99797.59
2022-10-21T00:53:39.881Z,99795.28
2022-10-21T00:58:41.241Z,99795.28
2022-10-21T01:03:42.596Z,99792.34
2022-10-21T01:08:43.958Z,99783.00
2022-10-21T01:13:51.695Z,99786.66
2022-10-21T01:19:17.790Z,99775.63
2022-10-21T01:24:44.216Z,99760.53
2022-10-21T01:30:07.973Z,99754.84
2022-10-21T01:35:23.462Z,99734.56
2022-10-21T01:40:36.968Z,99708.63
2022-10-21T01:45:46.610Z,99700.97
2022-10-21T01:50:53.295Z,99685.88
2022-10-21T01:55:55.691Z,99672.00
2022-10-21T02:01:00.345Z,99676.31
2022-10-21T02:06:01.837Z,99667.97
2022-10-21T02:11:07.250Z,99678.69
2022-10-21T02:16:11.645Z,99681.06
2022-10-21T02:21:19.752Z,99689.38
2022-10-21T02:26:23.125Z,99671.13
2022-10-21T02:32:15.844Z,99678.50
2022-10-21T02:37:30.089Z,99698.59
2022-10-21T02:42:33.707Z,99685.53
2022-10-21T02:47:37.027Z,99673.69
2022-10-21T02:52:38.451Z,99675.38
2022-10-21T02:57:40.115Z,99663.97
2022-10-21T03:02:42.087Z,99653.56
2022-10-21T03:07:43.415Z,99655.59
2022-10-21T03:12:44.650Z,99671.50
2022-10-21T03:17:46.764Z,99672.41
2022-10-21T03:22:48.118Z,99670.22
2022-10-21T03:27:50.607Z,99640.75
2022-10-21T03:32:51.888Z,99636.75
2022-10-21T03:37:53.249Z,99631.56
2022-10-21T03:42:54.506Z,99625.03
2022-10-21T03:47:55.860Z,99623.50
2022-10-21T03:52:57.108Z,99618.31
2022-10-21T03:57:58.391Z,99611.97
2022-10-21T04:02:59.753Z,99611.97
2022-10-21T04:08:01.100Z,99625.03
2022-10-21T04:13:02.418Z,99628.72
2022-10-21T04:18:03.714Z,99607.94
2022-10-21T04:23:05.015Z,99600.59
2022-10-21T04:28:06.248Z,99594.91
2022-10-21T04:33:07.652Z,99608.47
2022-10-21T04:38:08.965Z,99602.59
2022-10-21T04:43:10.242Z,99596.41
2022-10-21T04:48:13.577Z,99587.19
2022-10-21T04:53:15.150Z,99593.19
2022-10-21T04:58:20.914Z,99585.00
2022-10-21T05:03:23.266Z,99576.13
2022-10-21T05:08:24.585Z,99579.63
2022-10-21T05:13:26.734Z,99583.69
2022-10-21T05:18:28.280Z,99590.03
2022-10-21T05:23:30.499Z,99574.28
2022-10-21T05:28:31.802Z,99570.78
2022-10-21T05:33:33.130Z,99557.06
2022-10-21T05:38:35.419Z,99550.69
2022-10-21T05:43:38.105Z,99565.41
2022-10-21T05:48:39.408Z,99550.31
2022-10-21T05:53:40.788Z,99561.03
2022-10-21T05:58:42.087Z,99553.00
2022-10-21T06:03:43.393Z,99547.63
2022-10-21T06:08:45.392Z,99547.00
2022-10-21T06:13:47.210Z,99541.31
2022-10-21T06:18:48.448Z,99554.03
2022-10-21T06:23:52.955Z,99555.03
2022-10-21T06:28:54.215Z,99569.94
2022-10-21T06:33:55.486Z,99577.66
2022-10-21T06:38:56.733Z,99578.81
2022-10-21T06:43:58.032Z,99565.56
2022-10-21T06:48:59.344Z,99552.34
2022-10-21T06:54:00.683Z,99568.75
2022-10-21T06:59:01.985Z,99560.19
2022-10-21T07:04:05.873Z,99573.47
2022-10-21T07:09:08.554Z,99582.81
2022-10-21T07:14:11.962Z,99574.28
2022-10-21T07:19:13.242Z,99579.16
2022-10-21T07:24:17.585Z,99585.50
2022-10-21T07:29:21.328Z,99593.38
2022-10-21T07:34:22.908Z,99608.94
2022-10-21T07:39:26.345Z,99615.97
2022-10-21T07:44:27.664Z,99614.94
2022-10-21T07:49:28.947Z,99618.28
2022-10-21T07:54:30.332Z,99612.91
2022-10-21T07:59:31.606Z,99612.22
2022-10-21T08:04:33.372Z,99618.59
2022-10-21T08:09:34.782Z,99605.28
2022-10-21T08:14:36.074Z,99614.97
2022-10-21T08:19:37.441Z,99608.13
2022-10-21T08:24:41.535Z,99608.94
2022-10-21T08:29:43.767Z,99611.63
2022-10-21T08:34:45.011Z,99600.56
2022-10-21T08:39:46.928Z,99600.09
2022-10-21T08:44:55.493Z,99589.50
2022-10-21T08:50:00.285Z,99594.88
2022-10-21T08:55:04.710Z,99599.56
2022-10-21T09:00:22.774Z,99596.88
2022-10-21T09:05:46.027Z,99600.72
2022-10-21T09:10:56.291Z,99596.22
2022-10-21T09:16:21.530Z,99585.28
2022-10-21T09:22:33.238Z,99602.84
2022-10-21T09:27:32.025Z,99606.53
2022-10-21T09:32:42.345Z,99603.84
2022-10-21T09:38:02.239Z,99616.28
2022-10-21T09:43:05.177Z,99603.88
2022-10-21T09:48:18.904Z,99609.25
2022-10-21T09:53:26.450Z,99622.84
2022-10-21T09:58:43.480Z,99611.25
2022-10-21T10:03:47.761Z,99612.59
2022-10-21T10:08:49.088Z,99613.94
2022-10-21T10:13:53.054Z,99617.78
2022-10-21T10:19:23.463Z,99621.94
2022-10-21T10:24:24.736Z,99618.75
2022-10-21T10:29:28.096Z,99628.28
2022-10-21T10:34:40.035Z,99631.81
2022-10-21T10:39:45.662Z,99636.53
2022-10-21T10:44:51.001Z,99634.69
2022-10-21T10:49:52.495Z,99631.16
2022-10-21T10:55:16.156Z,99625.97
2022-10-21T11:00:22.922Z,99628.28
2022-10-21T11:05:37.176Z,99620.56
2022-10-21T11:10:38.358Z,99595.38
2022-10-21T11:15:55.149Z,99580.00
2022-10-21T11:21:07.120Z,99572.28
2022-10-21T11:26:41.043Z,99559.69
2022-10-21T11:32:12.557Z,99599.06
2022-10-21T11:37:58.838Z,99601.38
2022-10-21T11:43:29.634Z,99608.38
2022-10-21T11:48:36.259Z,99623.25
2022-10-21T11:53:51.213Z,99638.53
2022-10-21T11:59:23.079Z,99646.34
2022-10-21T12:04:34.257Z,99647.88
2022-10-21T12:10:04.074Z,99645.38
2022-10-21T12:15:25.481Z,99640.06
2022-10-21T12:20:27.137Z,99636.81
2022-10-21T12:25:37.601Z,99625.00
2022-10-21T12:30:50.857Z,99641.84
2022-10-21T12:35:55.194Z,99635.75
2022-10-21T12:41:24.648Z,99635.97
2022-10-21T12:46:48.586Z,99628.38
2022-10-21T12:51:52.819Z,99641.00
2022-10-21T12:57:05.972Z,99649.28
2022-10-21T13:02:10.170Z,99641.66
2022-10-21T13:07:12.813Z,99636.19
2022-10-21T13:12:17.103Z,99627.28
2022-10-21T13:17:21.441Z,99633.34
2022-10-21T13:22:49.455Z,99634.09
2022-10-21T13:28:03.869Z,99628.50
2022-10-21T13:33:14.782Z,99623.81
2022-10-21T13:38:23.786Z,99620.19
2022-10-21T13:43:29.157Z,99629.69
2022-10-21T13:48:30.717Z,99639.00
2022-10-21T13:53:37.979Z,99625.16
2022-10-21T13:58:39.788Z,99621.88
2022-10-21T14:03:42.297Z,99628.06
2022-10-21T14:08:46.890Z,99619.19
2022-10-21T14:13:50.479Z,99636.28
2022-10-21T14:18:53.490Z,99636.09
2022-10-21T14:23:55.122Z,99638.13
2022-10-21T14:28:58.415Z,99635.53
2022-10-21T14:33:59.788Z,99618.63
2022-10-21T14:39:06.549Z,99618.53
2022-10-21T14:44:16.034Z,99613.84
2022-10-21T14:49:22.458Z,99609.78
2022-10-21T14:54:29.812Z,99617.84
2022-10-21T14:59:39.060Z,99620.72
2022-10-21T15:04:43.537Z,99624.41
2022-10-21T15:10:03.231Z,99614.50
2022-10-21T15:15:06.002Z,99604.38
2022-10-21T15:20:16.154Z,99601.88
2022-10-21T15:25:19.299Z,99602.72
2022-10-21T15:30:21.788Z,99612.72
2022-10-21T15:35:23.856Z,99617.06
2022-10-21T15:40:25.182Z,99607.22
2022-10-21T15:45:26.466Z,99605.56
2022-10-21T15:50:27.793Z,99605.91
2022-10-21T15:55:29.029Z,99610.91
2022-10-21T16:00:31.979Z,99614.44
2022-10-21T16:05:33.309Z,99594.09
2022-10-21T16:10:36.233Z,99606.38
2022-10-21T16:15:37.540Z,99597.56
2022-10-21T16:20:39.611Z,99606.56
2022-10-21T16:25:40.921Z,99604.22
2022-10-21T16:30:42.196Z,99609.59
2022-10-21T16:35:48.373Z,99615.66
2022-10-21T16:40:49.620Z,99613.38
2022-10-21T16:45:51.362Z,99621.09
2022-10-21T16:50:52.665Z,99614.06
2022-10-21T16:55:53.910Z,99605.69
2022-10-21T17:00:56.512Z,99612.38
2022-10-21T17:05:57.790Z,99624.13
2022-10-21T17:10:59.083Z,99624.19
2022-10-21T17:16:00.388Z,99639.00
2022-10-21T17:21:02.262Z,99637.84
2022-10-21T17:26:03.549Z,99643.03
2022-10-21T17:31:04.969Z,99647.09
2022-10-21T17:36:06.576Z,99648.94
2022-10-21T17:41:12.923Z,99656.81
2022-10-21T17:46:20.552Z,99646.75
2022-10-21T17:51:23.032Z,99654.66
2022-10-21T17:56:24.339Z,99664.53
2022-10-21T18:01:26.091Z,99667.91
2022-10-21T18:06:27.574Z,99662.53
2022-10-21T18:11:28.813Z,99657.00
2022-10-21T18:16:30.316Z,99667.09
2022-10-21T18:21:31.635Z,99678.38
2022-10-21T18:26:33.128Z,99674.31
2022-10-21T18:31:36.282Z,99663.09
2022-10-21T18:36:37.910Z,99659.94
2022-10-21T18:41:39.403Z,99668.34
2022-10-21T18:46:42.441Z,99640.50
2022-10-21T18:51:43.989Z,99631.28
2022-10-21T18:56:45.378Z,99623.59
2022-10-21T19:01:46.688Z,99638.72
2022-10-21T19:06:48.630Z,99635.88
2022-10-21T19:11:50.027Z,99643.78
2022-10-21T19:16:51.279Z,99628.38
2022-10-21T19:21:52.797Z,99625.88
2022-10-21T19:26:57.167Z,99645.84
2022-10-21T19:31:58.462Z,99656.75
2022-10-21T19:36:59.778Z,99668.84
2022-10-21T19:42:01.280Z,99693.00
2022-10-21T19:47:02.545Z,99696.69
2022-10-21T19:52:04.000Z,99701.09
2022-10-21T19:57:05.349Z,99678.25
2022-10-21T20:02:06.705Z,99693.00
2022-10-21T20:07:07.985Z,99689.50
2022-10-21T20:12:09.498Z,99675.91
2022-10-21T20:17:11.721Z,99693.34
2022-10-21T20:22:15.513Z,99694.50
2022-10-21T20:27:16.894Z,99701.34
2022-10-21T20:32:18.130Z,99702.03
2022-10-21T20:37:19.461Z,99686.94
2022-10-21T20:42:20.746Z,99689.44
2022-10-21T20:47:22.001Z,99689.25
2022-10-21T20:52:23.361Z,99703.34
2022-10-21T20:57:24.700Z,99695.66
2022-10-21T21:02:25.933Z,99723.16
2022-10-21T21:07:27.194Z,99714.63
2022-10-21T21:12:28.774Z,99719.84
2022-10-21T21:17:30.050Z,99709.41
2022-10-21T21:22:31.326Z,99706.53
2022-10-21T21:27:32.631Z,99702.00
2022-10-21T21:32:33.897Z,99664.13
2022-10-21T21:37:35.168Z,99658.09
2022-10-21T21:42:36.621Z,99669.47
2022-10-21T21:47:37.845Z,99701.16
2022-10-21T21:52:39.221Z,99679.88
2022-10-21T21:57:40.467Z,99684.75
2022-10-21T22:02:41.762Z,99704.22
2022-10-21T22:07:43.288Z,99694.69
2022-10-21T22:12:45.022Z,99714.31
2022-10-21T22:17:48.564Z,99714.47
2022-10-21T22:22:49.847Z,99689.34
2022-10-21T22:27:51.120Z,99698.56
2022-10-21T22:32:52.373Z,99692.34
2022-10-21T22:37:53.729Z,99675.22
2022-10-21T22:42:54.965Z,99693.00
2022-10-21T22:47:56.219Z,99690.34
2022-10-21T22:52:57.459Z,99678.59
2022-10-21T22:57:58.700Z,99673.91
2022-10-21T23:02:59.981Z,99670.53
2022-10-21T23:08:01.217Z,99665.50
2022-10-21T23:13:02.816Z,99674.72
2022-10-21T23:18:04.752Z,99680.09
2022-10-21T23:23:06.209Z,99690.00
2022-10-21T23:28:09.630Z,99687.66
2022-10-21T23:33:10.990Z,99662.66
2022-10-21T23:38:12.299Z,99683.78
2022-10-21T23:43:13.621Z,99701.91
2022-10-21T23:48:15.073Z,99712.16
2022-10-21T23:53:16.341Z,99725.06
2022-10-21T23:58:17.581Z,99741.16
